Latest Weather Observations for Grafton Airport

IDN60801

Issued at 1:32 pm EST Monday 25 May 2015 (issued every 30 minutes, with the page automatically refreshed every 10 minutes)

About weather observations | Map of weather stations | Latest weather observations for NSW | Other Formats
Station Details ID: 058161 Name: GRAFTON AIRPORT AWS Lat: -29.76 Lon: 153.03 Height: 25.09 m
Data from the previous 72 hours. | See also: Recent months for locations in New South Wales
Date/Time
EST
Temp
°C
App
Temp
°C
Dew
Point
Rel
Hum
%
Delta-T
°C
Wind Press
QNH
hPa
Press
MSL
hPa
Rain
since 9 am
mm
Dir
 
Spd
km/h
Gust
km/h
Spd
kts
Gust
kts
25/01:30pm 19.3 19.8 11.6 61 4.2 CALM 0 0 0 0 1029.6 1029.6 0.0
25/01:00pm 19.4 18.8 12.2 63 4.0 ESE 7 9 4 5 1029.7 1029.7 0.0
25/12:30pm 19.7 18.8 11.5 59 4.5 SSW 7 11 4 6 1030.1 1030.1 0.0
25/12:00pm 18.8 18.4 11.1 61 4.2 NW 4 9 2 5 1030.7 1030.7 0.0
25/11:30am 17.9 17.1 11.0 64 3.7 NNE 6 9 3 5 1031.3 1031.3 0.0
25/11:00am 16.9 16.1 11.2 69 3.1 N 6 9 3 5 1032.1 1032.1 0.0
25/10:30am 14.3 13.7 10.5 78 2.0 NNE 4 7 2 4 1032.4 1032.4 0.0
25/10:00am 13.2 12.8 9.6 79 1.8 N 2 7 1 4 1032.7 1032.7 0.0
25/09:30am 12.4 11.9 9.4 82 1.5 SSW 2 6 1 3 1032.6 1032.6 0.0
25/09:00am 11.9 11.8 9.5 85 1.2 CALM 0 0 0 0 1032.4 1032.4 0.0
25/08:30am 10.9 9.4 9.0 88 0.9 SSW 7 9 4 5 1032.0 1032.0 0.0
25/08:00am 10.4 8.8 8.8 90 0.8 SSW 7 9 4 5 1031.9 1031.9 0.0
25/07:30am 9.6 7.9 8.5 93 0.5 SSW 7 11 4 6 1031.7 1031.7 0.0
25/07:00am 9.0 7.5 8.4 96 0.3 SSW 6 7 3 4 1031.6 1031.6 0.0
25/06:30am 8.1 6.5 8.0 99 0.0 SSW 6 9 3 5 1031.6 1031.6 0.0
25/06:00am 7.9 6.3 7.8 99 0.0 SSW 6 9 3 5 1031.4 1031.4 0.0
25/05:30am 7.8 6.5 7.7 99 0.0 SSW 4 6 2 3 1031.2 1031.2 0.0
25/05:00am 7.3 5.5 7.0 98 0.1 SSW 6 7 3 4 1030.8 1030.8 0.0
25/04:30am 7.6 5.6 7.3 98 0.1 S 7 9 4 5 1030.8 1030.8 0.0
25/04:00am 8.3 7.1 8.2 99 0.0 E 4 7 2 4 1030.9 1030.9 0.0
25/03:30am 7.7 7.1 7.3 97 0.2 CALM 0 0 0 0 1030.9 1030.9 0.0
25/03:00am 7.7 5.9 7.3 97 0.2 SSW 6 9 3 5 1030.6 1030.6 0.0
25/02:30am 8.6 8.2 8.2 97 0.2 CALM 0 0 0 0 1030.9 1030.9 0.0
25/02:00am 8.7 7.2 8.3 97 0.2 S 6 7 3 4 1030.9 1030.9 0.0
25/01:30am 8.8 8.4 8.2 96 0.3 CALM 0 0 0 0 1031.1 1031.1 0.0
25/01:00am 9.3 7.7 8.7 96 0.3 E 7 9 4 5 1031.1 1031.1 0.0
25/12:30am 9.3 7.7 8.2 93 0.5 WSW 6 6 3 3 1030.9 1030.9 0.0
25/12:00am 10.6 9.2 9.4 92 0.6 S 7 9 4 5 1030.8 1030.8 0.0
 
Date/Time
EST
Temp
°C
App
Temp
°C
Dew
Point
Rel
Hum
%
Delta-T
°C
Wind Press
QNH
hPa
Press
MSL
hPa
Rain
since 9 am
mm
Dir
 
Spd
km/h
Gust
km/h
Spd
kts
Gust
kts
24/11:30pm 10.3 8.9 9.4 94 0.4 SSW 7 11 4 6 1030.9 1030.9 0.0
24/11:00pm 10.3 8.9 9.4 94 0.4 SW 7 9 4 5 1031.2 1031.2 0.0
24/10:30pm 11.2 9.9 10.1 93 0.6 SSW 7 11 4 6 1031.3 1031.3 0.0
24/10:00pm 10.7 8.9 9.6 93 0.5 SSW 9 11 5 6 1031.4 1031.4 0.0
24/09:30pm 11.4 9.9 10.6 95 0.4 SSW 9 11 5 6 1031.3 1031.3 0.0
24/09:00pm 11.2 10.0 10.4 95 0.4 SSW 7 9 4 5 1031.3 1031.3 0.0
24/08:30pm 11.3 10.4 10.5 95 0.4 SW 6 7 3 4 1031.0 1031.0 0.0
24/08:00pm 11.3 10.3 10.4 94 0.5 SSW 6 7 3 4 1030.8 1030.8 0.0
24/07:30pm 12.0 11.1 11.2 95 0.4 SSW 7 11 4 6 1030.6 1030.6 0.0
24/07:00pm 12.3 12.6 10.9 91 0.7 CALM 0 0 0 0 1030.4 1030.4 0.0
24/06:30pm 13.3 12.4 11.2 87 1.1 S 7 9 4 5 1030.1 1030.1 0.0
24/06:00pm 14.0 13.5 11.9 87 1.1 S 6 7 3 4 1030.1 1030.1 0.0
24/05:30pm 14.8 14.6 11.9 83 1.6 S 4 7 2 4 1030.0 1030.0 0.0
24/05:00pm 15.9 15.3 11.7 76 2.3 S 6 7 3 4 1029.8 1029.8 0.0
24/04:30pm 17.3 15.9 10.9 66 3.4 SSE 9 13 5 7 1029.2 1029.2 0.0
24/04:00pm 18.0 16.3 11.1 64 3.7 SSE 11 15 6 8 1029.0 1029.0 0.0
24/03:30pm 19.0 17.8 11.6 62 4.1 SSE 9 15 5 8 1029.0 1029.0 0.0
24/03:00pm 19.3 17.8 10.6 57 4.7 SSE 9 13 5 7 1029.1 1029.1 0.0
24/02:30pm 19.7 17.4 10.4 55 5.0 SSE 13 17 7 9 1028.8 1028.8 0.0
24/02:00pm 19.9 16.7 9.8 52 5.4 S 17 24 9 13 1028.8 1028.8 0.0
24/01:30pm 19.9 17.1 10.0 53 5.3 SE 15 22 8 12 1028.6 1028.6 0.0
24/01:00pm 19.4 16.6 9.9 54 5.0 S 15 28 8 15 1028.6 1028.6 0.0
24/12:30pm 20.1 17.2 11.1 56 4.9 S 17 26 9 14 1028.7 1028.7 0.0
24/12:00pm 19.4 17.4 10.1 55 5.0 S 11 17 6 9 1029.2 1029.2 0.0
24/11:30am 19.1 17.3 10.9 59 4.5 SSW 11 17 6 9 1029.9 1029.9 0.0
24/11:00am 18.5 17.0 10.6 60 4.2 SSW 9 15 5 8 1030.3 1030.3 0.0
24/10:30am 18.0 16.5 10.6 62 4.0 SSW 9 15 5 8 1030.5 1030.5 0.0
24/10:00am 17.6 16.7 10.5 63 3.8 SSE 6 7 3 4 1030.5 1030.5 0.0
24/09:30am 15.2 14.4 11.0 76 2.2 SW 6 7 3 4 1030.5 1030.5 0.0
24/09:00am 14.1 13.4 11.3 83 1.5 SW 6 7 3 4 1030.4 1030.4 0.0
24/08:30am 13.1 12.2 10.5 84 1.4 S 6 7 3 4 1030.2 1030.2 0.0
24/08:00am 11.4 11.5 10.3 93 0.6 CALM 0 0 0 0 1029.7 1029.7 0.0
24/07:30am 9.4 7.9 9.3 99 0.0 SSW 7 9 4 5 1029.3 1029.3 0.0
24/07:00am 8.2 7.7 7.9 98 0.1 CALM 0 0 0 0 1028.8 1028.8 0.0
24/06:40am 7.5 6.8 7.1 97 0.2 CALM 0 0 0 0 1028.4 1028.4 0.0
24/06:30am 7.2 6.4 6.5 95 0.3 CALM 0 0 0 0 1028.4 1028.4 0.0
24/06:20am 7.1 6.3 6.4 95 0.3 CALM 0 0 0 0 1028.3 1028.3 0.0
24/06:00am 8.2 6.0 7.9 98 0.1 S 9 9 5 5 1028.1 1028.1 0.0
24/05:42am 8.5 7.7 8.1 97 0.2 SSE 2 9 1 5 1028.1 1028.1 0.0
24/05:30am 8.2 7.7 7.8 97 0.2 CALM 0 0 0 0 1028.0 1028.0 0.0
24/05:22am 8.0 7.4 7.4 96 0.3 CALM 0 0 0 0 1027.9 1027.9 0.0
24/05:00am 8.6 7.0 7.8 95 0.4 S 6 7 3 4 1027.6 1027.6 0.0
24/04:30am 8.9 8.5 8.1 95 0.4 CALM 0 0 0 0 1027.4 1027.4 0.0
24/04:00am 9.5 8.4 8.6 94 0.4 SSW 4 7 2 4 1027.3 1027.3 0.0
24/03:30am 9.6 7.9 8.5 93 0.5 SSW 7 9 4 5 1027.1 1027.1 0.0
24/03:00am 10.0 8.3 8.4 90 0.8 SSW 7 9 4 5 1027.2 1027.2 0.0
24/02:30am 10.6 9.0 8.9 89 0.8 S 7 9 4 5 1027.2 1027.2 0.0
24/02:00am 11.0 9.4 8.9 87 1.0 SSW 7 9 4 5 1027.3 1027.3 0.0
24/01:30am 11.4 10.0 9.5 88 1.0 SW 7 9 4 5 1027.3 1027.3 0.0
24/01:00am 11.1 9.9 9.5 90 0.8 SSW 6 9 3 5 1027.2 1027.2 0.0
24/12:30am 10.6 10.4 9.2 91 0.7 CALM 0 6 0 3 1027.1 1027.1 0.0
24/12:00am 10.9 9.2 9.7 92 0.6 S 9 11 5 6 1027.1 1027.1 0.0
 
Date/Time
EST
Temp
°C
App
Temp
°C
Dew
Point
Rel
Hum
%
Delta-T
°C
Wind Press
QNH
hPa
Press
MSL
hPa
Rain
since 9 am
mm
Dir
 
Spd
km/h
Gust
km/h
Spd
kts
Gust
kts
23/11:30pm 11.1 9.8 9.9 92 0.6 SSW 7 7 4 4 1027.4 1027.4 0.0
23/11:00pm 11.3 10.1 10.2 93 0.6 SSW 7 9 4 5 1027.3 1027.3 0.0
23/10:30pm 11.9 12.1 10.5 91 0.7 CALM 0 0 0 0 1027.3 1027.3 0.0
23/10:00pm 11.9 11.8 9.5 85 1.2 CALM 0 0 0 0 1027.2 1027.2 0.0
23/09:30pm 13.5 13.8 10.9 84 1.4 CALM 0 0 0 0 1027.0 1027.0 0.0
23/09:00pm 13.5 12.6 10.7 83 1.5 SW 6 7 3 4 1026.9 1026.9 0.0
23/08:30pm 14.5 14.4 10.9 79 1.9 SW 2 6 1 3 1026.9 1026.9 0.0
23/08:00pm 15.2 14.3 10.8 75 2.3 SW 6 6 3 3 1026.8 1026.8 0.0
23/07:30pm 15.9 14.9 11.1 73 2.6 SSW 7 11 4 6 1026.7 1026.7 0.0
23/07:00pm 15.7 14.3 10.9 73 2.5 S 9 13 5 7 1026.5 1026.5 0.0
23/06:30pm 16.4 14.6 10.9 70 2.9 SSW 11 15 6 8 1026.4 1026.4 0.0
23/06:00pm 15.8 14.5 11.4 75 2.4 S 9 9 5 5 1026.2 1026.2 0.0
23/05:30pm 15.5 14.1 10.9 74 2.4 S 9 11 5 6 1025.9 1025.9 0.0
23/05:00pm 16.6 15.1 10.5 67 3.2 SSW 9 11 5 6 1025.5 1025.5 0.0
23/04:30pm 17.8 15.5 10.4 62 4.0 S 13 19 7 10 1025.3 1025.3 0.0
23/04:00pm 19.2 15.9 9.7 54 5.0 S 17 22 9 12 1025.1 1025.1 0.0
23/03:30pm 19.6 16.3 9.5 52 5.4 S 17 24 9 13 1024.9 1024.9 0.0
23/03:00pm 20.4 16.8 9.9 51 5.6 S 19 30 10 16 1024.6 1024.6 0.0
23/02:30pm 20.4 17.6 9.9 51 5.6 SSE 15 26 8 14 1024.5 1024.5 0.0
23/02:00pm 20.4 17.1 9.6 50 5.7 SSE 17 28 9 15 1024.5 1024.5 0.0
23/01:30pm 20.1 16.7 9.1 49 5.8 S 17 24 9 13 1024.7 1024.7 0.0
23/01:00pm 20.2 17.2 10.6 54 5.2 S 17 26 9 14 1024.8 1024.8 0.0
23/12:30pm 19.7 15.5 9.6 52 5.4 SSW 22 35 12 19 1024.8 1024.8 0.0
23/12:00pm 19.2 15.6 10.5 57 4.7 S 20 33 11 18 1025.1 1025.1 0.0
23/11:30am 18.5 13.6 9.8 57 4.6 S 26 35 14 19 1025.4 1025.4 0.0
23/11:00am 19.2 14.7 9.9 55 4.9 SSW 24 37 13 20 1025.6 1025.6 0.0
23/10:30am 19.5 15.9 10.0 54 5.1 S 19 32 10 17 1025.8 1025.8 0.0
23/10:00am 18.1 14.7 9.2 56 4.6 S 17 26 9 14 1025.9 1025.9 0.0
23/09:30am 19.0 16.4 10.6 58 4.5 SSW 15 28 8 15 1025.7 1025.7 0.0
23/09:00am 17.2 14.8 9.9 62 3.8 SSW 13 19 7 10 1025.5 1025.5 0.0
23/08:30am 16.4 13.5 9.6 64 3.5 SSW 15 20 8 11 1025.1 1025.1 0.0
23/08:00am 16.1 12.8 9.5 65 3.4 SSW 17 30 9 16 1024.6 1024.6 0.0
23/07:30am 15.9 13.3 9.3 65 3.4 SSW 13 20 7 11 1024.1 1024.1 0.0
23/07:00am 15.4 12.0 9.1 66 3.2 SSW 17 24 9 13 1023.6 1023.6 0.0
23/06:30am 15.4 11.7 9.5 68 3.1 SSW 19 30 10 16 1023.4 1023.4 0.0
23/06:00am 14.8 11.7 9.0 68 2.9 SSW 15 24 8 13 1022.7 1022.7 0.0
23/05:30am 15.0 11.0 8.9 67 3.1 SSW 20 35 11 19 1022.1 1022.1 0.0
23/05:00am 15.1 12.0 8.8 66 3.2 SSW 15 28 8 15 1021.9 1021.9 0.0
23/04:30am 15.3 12.2 8.8 65 3.3 SSW 15 26 8 14 1021.6 1021.6 0.0
23/04:00am 15.0 11.8 8.5 65 3.3 SSW 15 22 8 12 1021.1 1021.1 0.0
23/03:30am 15.2 12.0 8.4 64 3.4 SSW 15 24 8 13 1021.0 1021.0 0.0
23/03:00am 15.4 11.8 8.4 63 3.5 SSW 17 24 9 13 1021.0 1021.0 0.0
23/02:30am 15.2 12.7 8.4 64 3.4 SSW 11 19 6 10 1021.1 1021.1 0.0
23/02:00am 15.5 11.4 8.7 64 3.5 SSW 20 35 11 19 1021.0 1021.0 0.0
23/01:30am 15.9 10.3 8.9 63 3.6 SSW 28 46 15 25 1021.0 1021.0 0.0
23/01:14am 16.1 10.5 8.6 61 3.8 SSW 28 46 15 25 1020.9 1020.9 0.0
23/01:00am 15.8 12.2 8.3 61 3.8 SSW 17 24 9 13 1020.7 1020.7 0.0
23/12:30am 16.2 11.7 8.7 61 3.8 SSW 22 35 12 19 1020.4 1020.4 0.0
23/12:00am 16.1 12.6 8.6 61 3.8 SSW 17 24 9 13 1020.4 1020.4 0.0
 
Date/Time
EST
Temp
°C
App
Temp
°C
Dew
Point
Rel
Hum
%
Delta-T
°C
Wind Press
QNH
hPa
Press
MSL
hPa
Rain
since 9 am
mm
Dir
 
Spd
km/h
Gust
km/h
Spd
kts
Gust
kts
22/11:30pm 16.3 12.7 8.5 60 4.0 SSW 17 28 9 15 1020.3 1020.3 0.0
22/11:00pm 16.2 12.8 9.2 63 3.6 SSW 17 26 9 14 1020.0 1020.0 0.0
22/10:30pm 16.4 12.6 9.8 65 3.5 SSW 20 33 11 18 1019.6 1019.6 0.0
22/10:00pm 16.9 12.0 9.8 63 3.7 SSW 26 48 14 26 1019.3 1019.3 0.0
22/09:30pm 16.8 13.1 10.2 65 3.5 SSW 20 35 11 19 1019.3 1019.3 0.0
22/09:00pm 16.4 13.3 10.3 67 3.2 SSW 17 33 9 18 1018.7 1018.7 0.0
22/08:30pm 16.6 13.3 9.5 63 3.7 SSW 17 28 9 15 1018.5 1018.5 0.0
22/08:00pm 16.6 13.9 8.8 60 4.0 SSW 13 24 7 13 1018.0 1018.0 0.0
22/07:30pm 16.7 14.2 8.1 57 4.4 SW 11 19 6 10 1017.5 1017.5 0.0
22/07:00pm 16.2 13.7 8.2 59 4.0 SW 11 17 6 9 1016.4 1016.4 0.0
22/06:30pm 16.0 13.8 8.0 59 4.0 SW 9 20 5 11 1016.2 1016.2 0.0
22/06:00pm 17.1 14.9 7.7 54 4.7 WSW 9 17 5 9 1015.8 1015.8 0.0
22/05:30pm 17.8 14.8 7.8 52 5.1 WSW 13 20 7 11 1015.3 1015.3 0.0
22/05:00pm 18.3 14.9 7.7 50 5.4 WSW 15 24 8 13 1014.9 1014.9 0.0
22/04:30pm 18.7 16.1 7.8 49 5.6 WSW 11 20 6 11 1014.5 1014.5 0.0
22/04:00pm 19.6 16.5 7.4 45 6.2 WSW 13 26 7 14 1014.2 1014.2 0.0
22/03:30pm 19.5 16.6 8.2 48 5.8 WSW 13 22 7 12 1013.9 1013.9 0.0
22/03:00pm 19.7 15.4 7.1 44 6.4 WSW 19 35 10 19 1013.8 1013.8 0.0
22/02:30pm 20.3 16.8 7.3 43 6.6 WSW 15 22 8 12 1013.6 1013.6 0.0
22/02:00pm 20.1 16.3 7.5 44 6.5 WSW 17 28 9 15 1013.5 1013.5 0.0

Other Formats:

Comma delimited format used in spreadsheet applications
http://www.bom.gov.au/fwo/IDN60801/IDN60801.95570.axf

JavaScript Object Notation format (JSON) in row-major order
http://www.bom.gov.au/fwo/IDN60801/IDN60801.95570.json